AAPL   395.61 (+3.11%)
MSFT   214.48 (+0.38%)
FB   247.24 (+0.89%)
GOOGL   1,562.67 (+1.54%)
AMZN   3,274.31 (+2.32%)
NVDA   421.63 (+0.59%)
CGC   17.99 (+3.27%)
MU   50.80 (+0.18%)
TSLA   1,688.56 (+9.32%)
AMD   56.49 (+1.09%)
T   29.95 (-0.60%)
DIS   119.75 (+0.34%)
NFLX   560.78 (+2.20%)
BAC   24.21 (+0.79%)
AAPL   395.61 (+3.11%)
MSFT   214.48 (+0.38%)
FB   247.24 (+0.89%)
GOOGL   1,562.67 (+1.54%)
AMZN   3,274.31 (+2.32%)
NVDA   421.63 (+0.59%)
CGC   17.99 (+3.27%)
MU   50.80 (+0.18%)
TSLA   1,688.56 (+9.32%)
AMD   56.49 (+1.09%)
T   29.95 (-0.60%)
DIS   119.75 (+0.34%)
NFLX   560.78 (+2.20%)
BAC   24.21 (+0.79%)
AAPL   395.61 (+3.11%)
MSFT   214.48 (+0.38%)
FB   247.24 (+0.89%)
GOOGL   1,562.67 (+1.54%)
AMZN   3,274.31 (+2.32%)
NVDA   421.63 (+0.59%)
CGC   17.99 (+3.27%)
MU   50.80 (+0.18%)
TSLA   1,688.56 (+9.32%)
AMD   56.49 (+1.09%)
T   29.95 (-0.60%)
DIS   119.75 (+0.34%)
NFLX   560.78 (+2.20%)
BAC   24.21 (+0.79%)
AAPL   395.61 (+3.11%)
MSFT   214.48 (+0.38%)
FB   247.24 (+0.89%)
GOOGL   1,562.67 (+1.54%)
AMZN   3,274.31 (+2.32%)
NVDA   421.63 (+0.59%)
CGC   17.99 (+3.27%)
MU   50.80 (+0.18%)
TSLA   1,688.56 (+9.32%)
AMD   56.49 (+1.09%)
T   29.95 (-0.60%)
DIS   119.75 (+0.34%)
NFLX   560.78 (+2.20%)
BAC   24.21 (+0.79%)
Log in

NYSE:AMAntero Midstream Institutional Ownership

$5.36
-0.11 (-2.01 %)
(As of 07/13/2020 01:14 PM ET)
Add
Compare
Today's Range
$5.22
Now: $5.36
$5.43
50-Day Range
$4.30
MA: $5.24
$5.95
52-Week Range
$1.69
Now: $5.36
$12.46
Volume124,138 shs
Average Volume5.79 million shs
Market Capitalization$2.55 billion
P/E RatioN/A
Dividend Yield22.95%
Beta3.7

Institutional Ownership

Institutional Ownership Changes (13F Filings) for Antero Midstream (NYSE:AM)

Institutional Ownership Percentage: 59.62%

Institutional Buying and Selling by Quarter


Antero Midstream (NYSE AM) Institutional Buying and Selling

Reporting DateHedge FundShares HeldMarket Value% of PortfolioQuarterly Change in SharesOwnership in Company
7/9/2020Shah Capital Management2,348,868$11.98M7.2%+11.5%0.493%
7/8/2020Envestnet Asset Management Inc.390,195$1.99M0.0%+614.1%0.082%
6/19/2020State Street Corp6,926,374$14.55M0.0%+12.3%1.454%
6/11/2020New Mexico Educational Retirement Board70,700$0.15M0.0%+60.3%0.015%
6/2/2020Guggenheim Capital LLC473,725$1M0.0%+193.3%0.099%
5/26/2020Morgan Stanley1,836,362$3.86M0.0%-0.5%0.385%
5/22/2020Clearbridge Investments LLC5,069,390$10.65M0.0%-21.1%1.064%
5/21/2020HighTower Advisors LLC31,610$66K0.0%-28.9%0.007%
5/18/2020Voloridge Investment Management LLC745,680$1.57M0.0%+317.7%0.156%
5/18/2020Zimmer Partners LP4,462,500$9.37M0.2%N/A0.937%
5/18/2020Wexford Capital LP300,000$0.63M0.2%N/A0.063%
5/18/2020Advisor Group Holdings Inc.60,473$0.13M0.0%N/A0.013%
5/15/2020Ashford Capital Management Inc.20,000$42K0.0%-62.3%0.004%
5/15/2020Jane Street Group LLC146,477$0.31M0.0%+977.9%0.031%
5/15/2020Tower Research Capital LLC TRC45,339$96K0.0%N/A0.010%
5/15/2020Par Capital Management Inc.22,950$48K0.0%-93.4%0.005%
5/15/2020Invesco Ltd.70,978,456$149.05M0.1%+11.4%14.896%
5/15/2020Morgan Stanley1,836,362$3.86M0.0%-0.5%0.385%
5/15/2020Aristeia Capital LLC1,700,500$3.57M0.3%N/A0.357%
5/15/2020Harvest Fund Advisors LLC23,327,035$48.99M1.0%-0.5%4.896%
5/15/2020Advisors Asset Management Inc.1,402,206$2.95M0.1%+89.2%0.294%
5/15/2020United Capital Financial Advisers LLC75,446$0.16M0.0%+3.9%0.016%
5/15/2020Parametrica Management Ltd108,789$0.23M0.2%N/A0.023%
5/15/2020Atom Investors LP279,387$0.59M0.1%-10.8%0.059%
5/15/2020Cohen & Steers Inc.594,105$1.25M0.0%-65.3%0.125%
5/15/2020Thrivent Financial for Lutherans690,720$1.45M0.0%+790.0%0.145%
5/14/2020O Shares Investment Advisers LLC41,755$88K0.0%-8.2%0.009%
5/14/2020Wells Fargo & Company MN121,022$0.25M0.0%-11.3%0.025%
5/14/2020Geode Capital Management LLC3,161,687$6.64M0.0%+2.4%0.664%
5/14/2020Tortoise Capital Advisors L.L.C.8,576,218$18.01M0.3%-68.7%1.800%
5/14/2020Commonwealth of Pennsylvania Public School Empls Retrmt SYS754,030$1.58M0.0%-65.2%0.158%
5/14/2020Pinnacle Holdings LLC338,677$0.71M0.4%N/A0.071%
5/14/2020Wellington Management Group LLP36,958$78K0.0%-77.8%0.008%
5/14/2020Legal & General Group Plc342,794$0.72M0.0%+2.0%0.072%
5/14/2020Deutsche Bank AG312,153$0.66M0.0%+33.6%0.066%
5/14/2020Alliancebernstein L.P.507,121$1.07M0.0%+1.2%0.106%
5/14/2020Clear Harbor Asset Management LLC234,555$0.49M0.1%+8.3%0.049%
5/14/2020M&T Bank Corp15,597$33K0.0%+35.0%0.003%
5/14/2020Nuveen Asset Management LLC1,014,638$2.13M0.0%+6.2%0.213%
5/13/2020Prescott Group Capital Management L.L.C.2,044,506$4.29M2.1%N/A0.429%
5/13/2020Parametric Portfolio Associates LLC1,284,074$2.70M0.0%+77.0%0.269%
5/13/2020Treasurer of the State of North Carolina99,860$0.21M0.0%+63.4%0.021%
5/13/2020BNP Paribas Arbitrage SA197,422$0.42M0.0%-13.7%0.041%
5/13/2020Federated Hermes Inc.89,341$0.19M0.0%-3.9%0.019%
5/13/2020US Bancorp DE26,323$55K0.0%+765.9%0.006%
5/12/2020Van ECK Associates Corp116,475$0.25M0.0%-2.9%0.024%
5/12/2020Vident Investment Advisory LLC663,968$1.40M0.1%N/A0.139%
5/12/2020Dividend Assets Capital LLC31,834$67K0.0%-79.3%0.007%
5/12/2020Citigroup Inc.437,124$0.92M0.0%+39.6%0.092%
5/12/2020Victory Capital Management Inc.39,412$83K0.0%-23.4%0.008%
5/12/2020American Financial Group Inc.34,000$72K0.0%+30.8%0.007%
5/12/2020GSA Capital Partners LLP138,488$0.29M0.1%N/A0.029%
5/12/2020JPMorgan Chase & Co.1,040,484$2.19M0.0%-6.1%0.218%
5/11/2020State Street Corp6,926,374$14.55M0.0%+12.3%1.454%
5/11/2020NBW Capital LLC605,442$1.27M0.6%+1.1%0.127%
5/11/2020Mutual of America Capital Management LLC276,817$0.58M0.0%+3.3%0.058%
5/11/2020RMB Capital Management LLC21,927$46K0.0%N/A0.005%
5/8/2020Northwestern Mutual Investment Management Company LLC103,160$0.22M0.0%-87.6%0.022%
5/8/2020Clear Harbor Asset Management LLC234,555$0.49M0.1%+8.3%0.049%
5/8/2020Edge Capital Group LLC28,092$59K0.0%N/A0.006%
5/8/2020PNC Financial Services Group Inc.32,852$68K0.0%+17.5%0.007%
5/8/2020Swiss National Bank439,300$0.92M0.0%+0.6%0.092%
5/8/2020Cambridge Investment Research Advisors Inc.30,308$64K0.0%+18.0%0.006%
5/8/2020Oppenheimer & Co. Inc.33,904$71K0.0%-18.2%0.007%
5/6/2020Russell Investments Group Ltd.404,516$0.85M0.0%-1.1%0.085%
5/6/2020Bank of New York Mellon Corp8,796,292$18.47M0.0%+7.1%1.846%
5/6/2020Rhumbline Advisers708,929$1.49M0.0%+9.8%0.149%
5/6/2020Wetherby Asset Management Inc.23,299$49K0.0%N/A0.005%
5/6/2020Alps Advisors Inc.238,670$0.50M0.0%-15.1%0.050%
5/5/2020Teacher Retirement System of Texas312,497$0.66M0.0%+15.5%0.066%
5/5/2020Arizona State Retirement System53,183$0.11M0.0%-68.4%0.011%
5/5/2020Alaska Permanent Fund Corp160,610$0.34M0.0%N/A0.034%
5/5/2020Aperio Group LLC844,449$1.77M0.0%+382.8%0.177%
5/4/2020American International Group Inc.578,319$1.21M0.0%+1.1%0.121%
5/4/2020Victory Capital Management Inc.39,412$83K0.0%-23.4%0.008%
5/4/2020Cadence Capital Management LLC1,527,212$3.21M0.5%+0.2%0.321%
5/2/2020SG Americas Securities LLC22,388$47K0.0%-78.4%0.005%
5/1/2020Sigma Planning Corp27,364$57K0.0%+12.3%0.006%
5/1/2020BlackRock Inc.24,546,587$51.55M0.0%-4.5%5.149%
5/1/2020State of Michigan Retirement System82,400$0.17M0.0%-5.7%0.017%
5/1/2020UBS Group AG328,026$0.69M0.0%-15.3%0.069%
4/29/2020Zazove Associates LLC519,200$1.09M0.1%-20.1%0.107%
4/28/2020State of Michigan Retirement System173$82K0.0%-99.8%0.000%
4/28/2020DDD Partners LLC1,868,505$3.92M1.4%+1.8%0.386%
4/27/2020Texas Permanent School Fund252,933$0.53M0.0%+24.5%0.052%
4/23/2020Pacer Advisors Inc.66,426$0.23M0.0%+84.0%0.014%
4/23/2020Envestnet Asset Management Inc.54,639$0.12M0.0%+201.6%0.011%
4/21/2020Raymond James & Associates78,324$0.16M0.0%-14.3%0.016%
4/21/2020Raymond James Financial Services Advisors Inc.228,815$0.48M0.0%+11.3%0.047%
4/20/2020Oregon Public Employees Retirement Fund111,658$0.23M0.0%+13.9%0.023%
4/20/2020JJJ Advisors Inc.132,722$0.28M0.2%-5.4%0.027%
4/20/2020XTX Markets LLC14,339$30K0.1%N/A0.003%
4/16/2020MAI Capital Management24,103$51K0.0%-51.6%0.005%
4/14/2020JGP Wealth Management LLC17,989$45K0.0%N/A0.004%
4/8/2020Shah Capital Management2,107,000$4.43M3.5%N/A0.435%
4/6/2020Chickasaw Capital Management LLC11,208,116$23.54M1.7%-41.3%2.315%
3/5/2020Nuveen Asset Management LLC954,997$7.25M0.0%+12.6%0.197%
3/3/2020Norges Bank2,229,553$16.92M0.0%N/A0.461%
2/21/2020Tortoise Capital Advisors L.L.C.27,410,391$208.05M1.3%-34.1%5.662%
2/20/2020Geode Capital Management LLC3,087,362$23.43M0.0%+19.2%0.638%
(Data available from 1/1/2016 forward)
This page was last updated on 7/13/2020 by MarketBeat.com Staff

Enter your email address below to receive a concise daily summary of analysts' upgrades, downgrades and new coverage with MarketBeat.com's FREE daily email newsletter.